sensor_id;sensor_type;location;lat;lon;timestamp;pressure;altitude;pressure_sealevel;temperature;humidity
11114;BME280;5610;52.154;9.198;2022-12-01T00:00:19;101743.31;;;7.72;100.00
11114;BME280;5610;52.154;9.198;2022-12-01T00:03:06;101749.59;;;7.70;100.00
11114;BME280;5610;52.154;9.198;2022-12-01T00:05:57;101745.22;;;7.69;100.00
11114;BME280;5610;52.154;9.198;2022-12-01T00:08:45;101740.78;;;7.68;100.00
11114;BME280;5610;52.154;9.198;2022-12-01T00:11:44;101750.47;;;7.70;100.00
11114;BME280;5610;52.154;9.198;2022-12-01T00:14:29;101753.13;;;7.70;100.00
11114;BME280;5610;52.154;9.198;2022-12-01T00:17:14;101738.06;;;7.71;100.00
11114;BME280;5610;52.154;9.198;2022-12-01T00:20:01;101746.03;;;7.71;100.00
11114;BME280;5610;52.154;9.198;2022-12-01T00:22:47;101747.88;;;7.69;100.00
11114;BME280;5610;52.154;9.198;2022-12-01T00:25:32;101741.63;;;7.70;100.00
11114;BME280;5610;52.154;9.198;2022-12-01T00:28:17;101733.69;;;7.70;100.00
11114;BME280;5610;52.154;9.198;2022-12-01T00:31:05;101739.06;;;7.67;100.00
11114;BME280;5610;52.154;9.198;2022-12-01T00:33:51;101740.84;;;7.66;100.00
11114;BME280;5610;52.154;9.198;2022-12-01T00:36:38;101742.63;;;7.66;100.00
11114;BME280;5610;52.154;9.198;2022-12-01T00:39:24;101742.63;;;7.66;100.00
11114;BME280;5610;52.154;9.198;2022-12-01T00:42:09;101736.53;;;7.64;100.00
11114;BME280;5610;52.154;9.198;2022-12-01T00:44:55;101748.88;;;7.65;100.00
11114;BME280;5610;52.154;9.198;2022-12-01T00:47:40;101748.88;;;7.65;100.00
11114;BME280;5610;52.154;9.198;2022-12-01T00:50:26;101740.97;;;7.63;100.00
11114;BME280;5610;52.154;9.198;2022-12-01T00:53:13;101746.22;;;7.65;100.00
11114;BME280;5610;52.154;9.198;2022-12-01T00:55:58;101745.41;;;7.63;100.00
11114;BME280;5610;52.154;9.198;2022-12-01T00:58:43;101743.56;;;7.65;100.00
11114;BME280;5610;52.154;9.198;2022-12-01T01:01:29;101747.19;;;7.62;100.00
11114;BME280;5610;52.154;9.198;2022-12-01T01:04:14;101749.78;;;7.64;100.00
11114;BME280;5610;52.154;9.198;2022-12-01T01:06:59;101748.06;;;7.63;100.00
11114;BME280;5610;52.154;9.198;2022-12-01T01:09:46;101755.16;;;7.61;100.00
11114;BME280;5610;52.154;9.198;2022-12-01T01:12:31;101761.41;;;7.60;100.00
11114;BME280;5610;52.154;9.198;2022-12-01T01:15:17;101760.47;;;7.61;100.00
11114;BME280;5610;52.154;9.198;2022-12-01T01:18:03;101758.75;;;7.60;100.00
11114;BME280;5610;52.154;9.198;2022-12-01T01:20:54;101760.59;;;7.58;100.00
11114;BME280;5610;52.154;9.198;2022-12-01T01:23:39;101759.78;;;7.56;100.00
11114;BME280;5610;52.154;9.198;2022-12-01T01:26:29;101766.88;;;7.55;100.00
11114;BME280;5610;52.154;9.198;2022-12-01T01:29:14;101758.94;;;7.54;100.00
11114;BME280;5610;52.154;9.198;2022-12-01T01:31:59;101758.94;;;7.54;100.00
11114;BME280;5610;52.154;9.198;2022-12-01T01:34:44;101768.69;;;7.53;100.00
11114;BME280;5610;52.154;9.198;2022-12-01T01:37:29;101765.16;;;7.53;100.00
11114;BME280;5610;52.154;9.198;2022-12-01T01:40:15;101765.22;;;7.51;100.00
11114;BME280;5610;52.154;9.198;2022-12-01T01:43:01;101775.88;;;7.50;100.00
11114;BME280;5610;52.154;9.198;2022-12-01T01:45:47;101768.84;;;7.49;100.00
11114;BME280;5610;52.154;9.198;2022-12-01T01:48:33;101769.66;;;7.51;100.00
11114;BME280;5610;52.154;9.198;2022-12-01T01:51:22;101770.56;;;7.50;100.00
11114;BME280;5610;52.154;9.198;2022-12-01T01:54:11;101766.19;;;7.49;100.00
11114;BME280;5610;52.154;9.198;2022-12-01T01:56:59;101769.69;;;7.49;100.00
11114;BME280;5610;52.154;9.198;2022-12-01T01:59:51;101776.88;;;7.46;100.00
11114;BME280;5610;52.154;9.198;2022-12-01T02:02:40;101762.69;;;7.47;100.00
11114;BME280;5610;52.154;9.198;2022-12-01T02:05:30;101780.38;;;7.48;100.00
11114;BME280;5610;52.154;9.198;2022-12-01T02:08:16;101779.50;;;7.47;100.00
11114;BME280;5610;52.154;9.198;2022-12-01T02:11:24;101772.44;;;7.46;100.00
11114;BME280;5610;52.154;9.198;2022-12-01T02:14:29;101779.53;;;7.46;100.00
11114;BME280;5610;52.154;9.198;2022-12-01T02:17:29;101776.00;;;7.45;100.00
11114;BME280;5610;52.154;9.198;2022-12-01T02:27:07;101775.13;;;7.44;100.00
11114;BME280;5610;52.154;9.198;2022-12-01T02:30:08;101776.91;;;7.44;100.00
11114;BME280;5610;52.154;9.198;2022-12-01T02:33:02;101779.69;;;7.41;100.00
11114;BME280;5610;52.154;9.198;2022-12-01T02:35:56;101776.16;;;7.40;100.00
11114;BME280;5610;52.154;9.198;2022-12-01T02:38:49;101777.03;;;7.39;100.00
11114;BME280;5610;52.154;9.198;2022-12-01T02:41:37;101772.66;;;7.38;100.00
11114;BME280;5610;52.154;9.198;2022-12-01T02:44:28;101779.75;;;7.38;100.00
11114;BME280;5610;52.154;9.198;2022-12-01T02:47:15;101780.72;;;7.35;100.00
11114;BME280;5610;52.154;9.198;2022-12-01T02:50:07;101772.81;;;7.34;100.00
11114;BME280;5610;52.154;9.198;2022-12-01T02:52:54;101777.38;;;7.29;100.00
11114;BME280;5610;52.154;9.198;2022-12-01T02:55:46;101773.88;;;7.28;100.00
11114;BME280;5610;52.154;9.198;2022-12-01T02:58:31;101771.28;;;7.27;100.00
11114;BME280;5610;52.154;9.198;2022-12-01T03:01:30;101766.91;;;7.24;100.00
11114;BME280;5610;52.154;9.198;2022-12-01T03:04:36;101766.16;;;7.21;100.00
11114;BME280;5610;52.154;9.198;2022-12-01T03:07:36;101767.19;;;7.15;100.00
11114;BME280;5610;52.154;9.198;2022-12-01T03:10:28;101771.63;;;7.14;100.00
11114;BME280;5610;52.154;9.198;2022-12-01T03:13:21;101771.56;;;7.16;100.00
11114;BME280;5610;52.154;9.198;2022-12-01T03:16:16;101780.41;;;7.16;100.00
11114;BME280;5610;52.154;9.198;2022-12-01T03:19:05;101776.81;;;7.18;100.00
11114;BME280;5610;52.154;9.198;2022-12-01T03:21:57;101768.88;;;7.18;100.00
11114;BME280;5610;52.154;9.198;2022-12-01T03:24:47;101773.31;;;7.17;100.00
11114;BME280;5610;52.154;9.198;2022-12-01T03:27:36;101774.22;;;7.16;100.00
11114;BME280;5610;52.154;9.198;2022-12-01T03:30:26;101775.13;;;7.15;100.00
11114;BME280;5610;52.154;9.198;2022-12-01T03:33:17;101774.31;;;7.13;100.00
11114;BME280;5610;52.154;9.198;2022-12-01T03:36:09;101776.13;;;7.11;100.00
11114;BME280;5610;52.154;9.198;2022-12-01T03:39:00;101769.09;;;7.10;100.00
11114;BME280;5610;52.154;9.198;2022-12-01T03:41:52;101773.59;;;7.08;100.00
11114;BME280;5610;52.154;9.198;2022-12-01T03:44:44;101772.78;;;7.06;100.00
11114;BME280;5610;52.154;9.198;2022-12-01T03:47:32;101770.97;;;7.06;100.00
11114;BME280;5610;52.154;9.198;2022-12-01T03:50:20;101771.84;;;7.07;100.00
11114;BME280;5610;52.154;9.198;2022-12-01T03:53:10;101768.38;;;7.05;100.00
11114;BME280;5610;52.154;9.198;2022-12-01T03:56:05;101770.13;;;7.04;100.00
11114;BME280;5610;52.154;9.198;2022-12-01T03:58:55;101775.44;;;7.04;100.00
11114;BME280;5610;52.154;9.198;2022-12-01T04:01:41;101766.63;;;7.04;100.00
11114;BME280;5610;52.154;9.198;2022-12-01T04:04:27;101778.06;;;7.06;100.00
11114;BME280;5610;52.154;9.198;2022-12-01T04:07:12;101779.00;;;7.05;100.00
11114;BME280;5610;52.154;9.198;2022-12-01T04:09:57;101777.16;;;7.07;100.00
11114;BME280;5610;52.154;9.198;2022-12-01T04:12:43;101778.94;;;7.06;100.00
11114;BME280;5610;52.154;9.198;2022-12-01T04:15:29;101777.19;;;7.05;100.00
11114;BME280;5610;52.154;9.198;2022-12-01T04:18:15;101779.13;;;6.68;100.00
11114;BME280;5610;52.154;9.198;2022-12-01T04:21:00;101780.72;;;6.42;100.00
11114;BME280;5610;52.154;9.198;2022-12-01T04:23:46;101784.94;;;6.48;100.00
11114;BME280;5610;52.154;9.198;2022-12-01T04:26:46;101784.63;;;6.60;100.00
11114;BME280;5610;52.154;9.198;2022-12-01T04:29:31;101782.78;;;6.64;100.00
11114;BME280;5610;52.154;9.198;2022-12-01T04:32:18;101782.63;;;6.70;100.00
11114;BME280;5610;52.154;9.198;2022-12-01T04:35:04;101786.91;;;6.74;100.00
11114;BME280;5610;52.154;9.198;2022-12-01T04:37:50;101783.28;;;6.78;100.00
11114;BME280;5610;52.154;9.198;2022-12-01T04:40:37;101789.34;;;6.81;100.00
11114;BME280;5610;52.154;9.198;2022-12-01T04:43:22;101793.72;;;6.84;100.00
11114;BME280;5610;52.154;9.198;2022-12-01T04:46:07;101783.09;;;6.84;100.00
11114;BME280;5610;52.154;9.198;2022-12-01T04:48:54;101785.88;;;6.79;100.00
11114;BME280;5610;52.154;9.198;2022-12-01T04:51:39;101785.34;;;6.67;100.00
11114;BME280;5610;52.154;9.198;2022-12-01T04:54:25;101787.28;;;6.60;100.00
11114;BME280;5610;52.154;9.198;2022-12-01T04:57:11;101787.28;;;6.60;100.00
11114;BME280;5610;52.154;9.198;2022-12-01T04:59:56;101784.72;;;6.57;100.00
11114;BME280;5610;52.154;9.198;2022-12-01T05:02:41;101793.44;;;6.28;100.00
11114;BME280;5610;52.154;9.198;2022-12-01T05:05:28;101790.22;;;6.49;100.00
11114;BME280;5610;52.154;9.198;2022-12-01T05:08:14;101800.22;;;6.38;100.00
11114;BME280;5610;52.154;9.198;2022-12-01T05:10:59;101788.50;;;6.47;100.00
11114;BME280;5610;52.154;9.198;2022-12-01T05:13:46;101798.38;;;6.42;100.00
11114;BME280;5610;52.154;9.198;2022-12-01T05:16:32;101792.16;;;6.43;100.00
11114;BME280;5610;52.154;9.198;2022-12-01T05:19:18;101796.50;;;6.45;100.00
11114;BME280;5610;52.154;9.198;2022-12-01T05:22:22;101798.16;;;6.49;100.00
11114;BME280;5610;52.154;9.198;2022-12-01T05:25:08;101792.16;;;6.43;100.00
11114;BME280;5610;52.154;9.198;2022-12-01T05:27:53;101802.78;;;6.41;100.00
11114;BME280;5610;52.154;9.198;2022-12-01T05:30:38;101799.25;;;6.42;100.00
11114;BME280;5610;52.154;9.198;2022-12-01T05:33:24;101801.19;;;6.34;100.00
11114;BME280;5610;52.154;9.198;2022-12-01T05:36:10;101794.16;;;6.35;100.00
11114;BME280;5610;52.154;9.198;2022-12-01T05:38:57;101805.63;;;6.33;100.00
11114;BME280;5610;52.154;9.198;2022-12-01T05:41:42;101801.28;;;6.31;100.00
11114;BME280;5610;52.154;9.198;2022-12-01T05:44:28;101814.41;;;6.34;100.00
11114;BME280;5610;52.154;9.198;2022-12-01T05:47:13;101821.63;;;6.29;100.00
11114;BME280;5610;52.154;9.198;2022-12-01T05:49:58;101812.81;;;6.28;100.00
11114;BME280;5610;52.154;9.198;2022-12-01T05:52:43;101817.44;;;6.20;100.00
11114;BME280;5610;52.154;9.198;2022-12-01T05:55:31;101821.84;;;6.20;100.00
11114;BME280;5610;52.154;9.198;2022-12-01T05:58:17;101821.16;;;6.13;100.00
11114;BME280;5610;52.154;9.198;2022-12-01T06:01:02;101831.56;;;5.81;100.00
11114;BME280;5610;52.154;9.198;2022-12-01T06:03:47;101826.91;;;5.92;100.00
11114;BME280;5610;52.154;9.198;2022-12-01T06:06:32;101833.16;;;5.88;100.00
11114;BME280;5610;52.154;9.198;2022-12-01T06:09:18;101835.22;;;5.75;100.00
11114;BME280;5610;52.154;9.198;2022-12-01T06:12:04;101835.84;;;5.46;100.00
11114;BME280;5610;52.154;9.198;2022-12-01T06:14:50;101844.41;;;5.59;100.00
11114;BME280;5610;52.154;9.198;2022-12-01T06:17:35;101836.78;;;5.45;100.00
11114;BME280;5610;52.154;9.198;2022-12-01T06:20:20;101843.59;;;5.55;100.00
11114;BME280;5610;52.154;9.198;2022-12-01T06:23:06;101848.25;;;5.44;100.00
11114;BME280;5610;52.154;9.198;2022-12-01T06:25:51;101845.78;;;5.35;100.00
11114;BME280;5610;52.154;9.198;2022-12-01T06:28:37;101841.78;;;5.14;100.00
11114;BME280;5610;52.154;9.198;2022-12-01T06:31:22;101849.72;;;5.15;100.00
11114;BME280;5610;52.154;9.198;2022-12-01T06:34:09;101851.97;;;5.34;100.00
11114;BME280;5610;52.154;9.198;2022-12-01T06:36:54;101863.50;;;5.31;100.00
11114;BME280;5610;52.154;9.198;2022-12-01T06:39:39;101858.97;;;5.36;100.00
11114;BME280;5610;52.154;9.198;2022-12-01T06:42:27;101852.66;;;5.43;100.00
11114;BME280;5610;52.154;9.198;2022-12-01T06:45:14;101855.31;;;5.42;100.00
11114;BME280;5610;52.154;9.198;2022-12-01T06:47:59;101854.28;;;5.50;100.00
11114;BME280;5610;52.154;9.198;2022-12-01T06:50:44;101859.53;;;5.52;100.00
11114;BME280;5610;52.154;9.198;2022-12-01T06:53:30;101863.88;;;5.55;100.00
11114;BME280;5610;52.154;9.198;2022-12-01T06:56:15;101865.72;;;5.49;100.00
11114;BME280;5610;52.154;9.198;2022-12-01T06:59:00;101867.66;;;5.43;100.00
11114;BME280;5610;52.154;9.198;2022-12-01T07:01:47;101863.63;;;5.23;100.00
11114;BME280;5610;52.154;9.198;2022-12-01T07:04:32;101873.50;;;5.14;100.00
11114;BME280;5610;52.154;9.198;2022-12-01T07:07:17;101882.44;;;5.08;100.00
11114;BME280;5610;52.154;9.198;2022-12-01T07:10:03;101879.84;;;5.05;100.00
11114;BME280;5610;52.154;9.198;2022-12-01T07:12:49;101878.78;;;5.15;100.00
11114;BME280;5610;52.154;9.198;2022-12-01T07:15:34;101875.31;;;5.12;100.00
11114;BME280;5610;52.154;9.198;2022-12-01T07:18:20;101884.78;;;5.23;100.00
11114;BME280;5610;52.154;9.198;2022-12-01T07:21:07;101893.38;;;5.33;100.00
11114;BME280;5610;52.154;9.198;2022-12-01T07:23:54;101888.41;;;5.18;100.00
11114;BME280;5610;52.154;9.198;2022-12-01T07:26:40;101882.19;;;5.22;100.00
11114;BME280;5610;52.154;9.198;2022-12-01T07:29:26;101896.16;;;5.29;100.00
11114;BME280;5610;52.154;9.198;2022-12-01T07:32:11;101889.94;;;5.30;100.00
11114;BME280;5610;52.154;9.198;2022-12-01T07:34:58;101899.72;;;5.24;100.00
11114;BME280;5610;52.154;9.198;2022-12-01T07:37:43;101899.63;;;5.31;100.00
11114;BME280;5610;52.154;9.198;2022-12-01T07:40:28;101899.06;;;5.15;100.00
11114;BME280;5610;52.154;9.198;2022-12-01T07:43:13;101899.13;;;5.10;100.00
11114;BME280;5610;52.154;9.198;2022-12-01T07:46:09;101900.63;;;5.23;100.00
11114;BME280;5610;52.154;9.198;2022-12-01T07:48:56;101898.28;;;5.07;100.00
11114;BME280;5610;52.154;9.198;2022-12-01T07:51:43;101903.41;;;5.17;100.00
11114;BME280;5610;52.154;9.198;2022-12-01T07:54:28;101902.97;;;4.94;100.00
11114;BME280;5610;52.154;9.198;2022-12-01T07:57:13;101909.50;;;4.72;100.00
11114;BME280;5610;52.154;9.198;2022-12-01T08:00:01;101916.47;;;4.76;100.00
11114;BME280;5610;52.154;9.198;2022-12-01T08:02:55;101914.41;;;4.94;100.00
11114;BME280;5610;52.154;9.198;2022-12-01T08:05:41;101918.91;;;4.88;100.00
11114;BME280;5610;52.154;9.198;2022-12-01T08:08:29;101916.09;;;4.97;100.00
11114;BME280;5610;52.154;9.198;2022-12-01T08:11:17;101908.25;;;4.94;100.00
11114;BME280;5610;52.154;9.198;2022-12-01T08:14:02;101915.00;;;5.07;100.00
11114;BME280;5610;52.154;9.198;2022-12-01T08:16:48;101912.25;;;5.15;100.00
11114;BME280;5610;52.154;9.198;2022-12-01T08:19:33;101918.88;;;5.37;100.00
11114;BME280;5610;52.154;9.198;2022-12-01T08:22:19;101920.50;;;5.44;100.00
11114;BME280;5610;52.154;9.198;2022-12-01T08:25:07;101925.56;;;5.55;100.00
11114;BME280;5610;52.154;9.198;2022-12-01T08:27:52;101924.59;;;5.59;100.00
11114;BME280;5610;52.154;9.198;2022-12-01T08:30:37;101924.53;;;5.62;100.00
11114;BME280;5610;52.154;9.198;2022-12-01T08:33:22;101932.69;;;5.51;100.00
11114;BME280;5610;52.154;9.198;2022-12-01T08:36:08;101930.56;;;5.69;100.00
11114;BME280;5610;52.154;9.198;2022-12-01T08:38:54;101934.72;;;5.81;100.00
11114;BME280;5610;52.154;9.198;2022-12-01T08:41:40;101939.84;;;5.88;100.00
11114;BME280;5610;52.154;9.198;2022-12-01T08:44:25;101935.38;;;5.92;100.00
11114;BME280;5610;52.154;9.198;2022-12-01T08:47:10;101938.22;;;5.83;100.00
11114;BME280;5610;52.154;9.198;2022-12-01T08:49:56;101941.63;;;5.88;100.00
11114;BME280;5610;52.154;9.198;2022-12-01T08:52:41;101945.22;;;5.85;100.00
11114;BME280;5610;52.154;9.198;2022-12-01T08:55:26;101956.69;;;5.84;100.00
11114;BME280;5610;52.154;9.198;2022-12-01T08:58:12;101936.16;;;5.97;100.00
11114;BME280;5610;52.154;9.198;2022-12-01T09:01:01;101928.06;;;6.04;100.00
11114;BME280;5610;52.154;9.198;2022-12-01T09:03:47;101934.94;;;6.13;100.00
11114;BME280;5610;52.154;9.198;2022-12-01T09:06:49;101933.81;;;6.23;100.00
11114;BME280;5610;52.154;9.198;2022-12-01T09:09:35;101938.16;;;6.26;100.00
11114;BME280;5610;52.154;9.198;2022-12-01T09:12:20;101934.56;;;6.30;100.00
11114;BME280;5610;52.154;9.198;2022-12-01T09:15:08;101941.47;;;5.97;100.00
11114;BME280;5610;52.154;9.198;2022-12-01T09:17:54;101939.25;;;6.17;100.00
11114;BME280;5610;52.154;9.198;2022-12-01T09:20:39;101939.75;;;6.33;100.00
11114;BME280;5610;52.154;9.198;2022-12-01T09:23:25;101934.56;;;6.30;100.00
11114;BME280;5610;52.154;9.198;2022-12-01T09:26:10;101942.22;;;6.41;100.00
11114;BME280;5610;52.154;9.198;2022-12-01T09:28:59;101935.88;;;6.49;100.00
11114;BME280;5610;52.154;9.198;2022-12-01T09:31:46;101934.88;;;6.53;100.00
11114;BME280;5610;52.154;9.198;2022-12-01T09:34:31;101933.81;;;6.60;100.00
11114;BME280;5610;52.154;9.198;2022-12-01T09:37:16;101938.41;;;6.52;100.00
11114;BME280;5610;52.154;9.198;2022-12-01T09:40:02;101938.25;;;6.60;100.00
11114;BME280;5610;52.154;9.198;2022-12-01T09:42:48;101941.03;;;6.55;100.00
11114;BME280;5610;52.154;9.198;2022-12-01T09:45:37;101946.91;;;6.67;100.00
11114;BME280;5610;52.154;9.198;2022-12-01T09:48:30;101944.41;;;6.60;100.00
11114;BME280;5610;52.154;9.198;2022-12-01T09:51:20;101937.22;;;6.66;100.00
11114;BME280;5610;52.154;9.198;2022-12-01T09:54:05;101940.75;;;6.66;100.00
11114;BME280;5610;52.154;9.198;2022-12-01T09:56:53;101939.59;;;6.76;100.00
11114;BME280;5610;52.154;9.198;2022-12-01T09:59:39;101943.03;;;6.80;100.00
11114;BME280;5610;52.154;9.198;2022-12-01T10:02:31;101930.88;;;6.73;100.00
11114;BME280;5610;52.154;9.198;2022-12-01T10:05:21;101933.38;;;6.79;100.00
11114;BME280;5610;52.154;9.198;2022-12-01T10:08:11;101926.09;;;6.87;100.00
11114;BME280;5610;52.154;9.198;2022-12-01T10:11:05;101931.59;;;6.79;100.00
11114;BME280;5610;52.154;9.198;2022-12-01T10:13:52;101929.03;;;6.75;100.00
11114;BME280;5610;52.154;9.198;2022-12-01T10:16:43;101934.94;;;6.86;100.00
11114;BME280;5610;52.154;9.198;2022-12-01T10:19:36;101935.06;;;6.81;100.00
11114;BME280;5610;52.154;9.198;2022-12-01T10:22:44;101927.88;;;6.86;100.00
11114;BME280;5610;52.154;9.198;2022-12-01T10:25:39;101923.53;;;6.84;100.00
11114;BME280;5610;52.154;9.198;2022-12-01T10:28:43;101923.63;;;6.79;100.00
11114;BME280;5610;52.154;9.198;2022-12-01T10:31:34;101918.78;;;6.63;100.00
11114;BME280;5610;52.154;9.198;2022-12-01T10:34:25;101931.31;;;6.54;100.00
11114;BME280;5610;52.154;9.198;2022-12-01T10:37:14;101920.75;;;6.53;100.00
11114;BME280;5610;52.154;9.198;2022-12-01T10:40:03;101918.06;;;6.54;100.00
11114;BME280;5610;52.154;9.198;2022-12-01T10:42:49;101921.53;;;6.58;100.00
11114;BME280;5610;52.154;9.198;2022-12-01T10:45:39;101914.69;;;6.49;100.00
11114;BME280;5610;52.154;9.198;2022-12-01T10:48:25;101914.69;;;6.48;100.00
11114;BME280;5610;52.154;9.198;2022-12-01T10:51:14;101909.47;;;6.45;100.00
11114;BME280;5610;52.154;9.198;2022-12-01T10:54:07;101913.88;;;6.46;100.00
11114;BME280;5610;52.154;9.198;2022-12-01T10:56:56;101908.66;;;6.41;100.00
11114;BME280;5610;52.154;9.198;2022-12-01T10:59:48;101906.75;;;6.48;100.00
11114;BME280;5610;52.154;9.198;2022-12-01T11:02:34;101903.38;;;6.41;100.00
11114;BME280;5610;52.154;9.198;2022-12-01T11:05:22;101908.56;;;6.46;100.00
11114;BME280;5610;52.154;9.198;2022-12-01T11:08:20;101914.25;;;6.66;100.00
11114;BME280;5610;52.154;9.198;2022-12-01T11:11:22;101908.91;;;6.68;100.00
11114;BME280;5610;52.154;9.198;2022-12-01T11:14:18;101908.66;;;6.78;100.00
11114;BME280;5610;52.154;9.198;2022-12-01T11:17:26;101915.84;;;6.73;100.00
11114;BME280;5610;52.154;9.198;2022-12-01T11:20:25;101901.31;;;6.54;100.00
11114;BME280;5610;52.154;9.198;2022-12-01T11:23:24;101896.34;;;6.76;100.00
11114;BME280;5610;52.154;9.198;2022-12-01T11:26:13;101897.25;;;6.75;100.00
11114;BME280;5610;52.154;9.198;2022-12-01T11:29:01;101897.91;;;6.84;100.00
11114;BME280;5610;52.154;9.198;2022-12-01T11:31:49;101903.94;;;6.89;100.00
11114;BME280;5610;52.154;9.198;2022-12-01T11:34:36;101901.22;;;6.93;100.00
11114;BME280;5610;52.154;9.198;2022-12-01T11:37:23;101901.38;;;6.86;100.00
11114;BME280;5610;52.154;9.198;2022-12-01T11:40:17;101895.34;;;6.80;100.00
11114;BME280;5610;52.154;9.198;2022-12-01T11:43:05;101893.47;;;6.85;100.00
11114;BME280;5610;52.154;9.198;2022-12-01T11:45:52;101904.13;;;6.82;100.00
11114;BME280;5610;52.154;9.198;2022-12-01T11:48:39;101896.38;;;6.74;100.00
11114;BME280;5610;52.154;9.198;2022-12-01T11:51:27;101887.50;;;6.77;100.00
11114;BME280;5610;52.154;9.198;2022-12-01T11:54:16;101898.16;;;6.74;100.00
11114;BME280;5610;52.154;9.198;2022-12-01T11:57:03;101890.16;;;6.77;100.00
11114;BME280;5610;52.154;9.198;2022-12-01T11:59:53;101893.38;;;6.88;100.00
11114;BME280;5610;52.154;9.198;2022-12-01T12:02:42;101891.22;;;7.02;100.00
11114;BME280;5610;52.154;9.198;2022-12-01T12:06:13;101889.66;;;7.28;100.00
11114;BME280;5610;52.154;9.198;2022-12-01T12:09:10;101887.69;;;7.65;100.00
11114;BME280;5610;52.154;9.198;2022-12-01T12:12:06;101888.25;;;7.77;100.00
11114;BME280;5610;52.154;9.198;2022-12-01T12:15:03;101886.41;;;7.79;100.00
11114;BME280;5610;52.154;9.198;2022-12-01T12:18:01;101877.38;;;7.84;100.00
11114;BME280;5610;52.154;9.198;2022-12-01T12:21:01;101873.03;;;7.82;100.00
11114;BME280;5610;52.154;9.198;2022-12-01T12:24:18;101871.84;;;7.92;100.00
11114;BME280;5610;52.154;9.198;2022-12-01T12:27:14;101873.28;;;8.02;100.00
11114;BME280;5610;52.154;9.198;2022-12-01T12:30:12;101874.59;;;8.17;100.00
11114;BME280;5610;52.154;9.198;2022-12-01T12:33:22;101866.44;;;8.23;100.00
11114;BME280;5610;52.154;9.198;2022-12-01T12:36:17;101863.31;;;8.38;100.00
11114;BME280;5610;52.154;9.198;2022-12-01T12:39:22;101857.84;;;8.43;100.00
11114;BME280;5610;52.154;9.198;2022-12-01T12:42:20;101858.22;;;8.31;100.00
11114;BME280;5610;52.154;9.198;2022-12-01T12:45:17;101867.28;;;8.25;100.00
11114;BME280;5610;52.154;9.198;2022-12-01T12:48:15;101865.31;;;8.04;100.00
11114;BME280;5610;52.154;9.198;2022-12-01T12:51:12;101873.81;;;7.85;100.00
11114;BME280;5610;52.154;9.198;2022-12-01T12:54:03;101870.31;;;7.85;100.00
11114;BME280;5610;52.154;9.198;2022-12-01T12:57:01;101867.72;;;7.82;100.00
11114;BME280;5610;52.154;9.198;2022-12-01T12:59:51;101874.13;;;7.75;100.00
11114;BME280;5610;52.154;9.198;2022-12-01T13:02:40;101865.47;;;7.69;100.00
11114;BME280;5610;52.154;9.198;2022-12-01T13:05:30;101867.31;;;7.66;100.00
11114;BME280;5610;52.154;9.198;2022-12-01T13:08:20;101866.69;;;7.58;100.00
11114;BME280;5610;52.154;9.198;2022-12-01T13:11:12;101858.38;;;7.39;100.00
11114;BME280;5610;52.154;9.198;2022-12-01T13:14:04;101860.44;;;7.29;100.00
11114;BME280;5610;52.154;9.198;2022-12-01T13:16:52;101864.94;;;7.26;100.00
11114;BME280;5610;52.154;9.198;2022-12-01T13:19:41;101857.09;;;7.23;100.00
11114;BME280;5610;52.154;9.198;2022-12-01T13:22:31;101849.25;;;7.20;100.00
11114;BME280;5610;52.154;9.198;2022-12-01T13:25:21;101853.00;;;7.11;100.00
11114;BME280;5610;52.154;9.198;2022-12-01T13:28:12;101852.28;;;7.06;100.00
11114;BME280;5610;52.154;9.198;2022-12-01T13:31:03;101857.78;;;6.98;100.00
11114;BME280;5610;52.154;9.198;2022-12-01T13:33:54;101852.75;;;6.87;100.00
11114;BME280;5610;52.154;9.198;2022-12-01T13:36:47;101854.31;;;6.62;100.00
11114;BME280;5610;52.154;9.198;2022-12-01T13:39:33;101852.72;;;6.55;100.00
11114;BME280;5610;52.154;9.198;2022-12-01T13:42:22;101858.16;;;6.50;100.00
11114;BME280;5610;52.154;9.198;2022-12-01T13:45:15;101853.78;;;6.49;100.00
11114;BME280;5610;52.154;9.198;2022-12-01T13:48:04;101845.75;;;6.52;100.00
11114;BME280;5610;52.154;9.198;2022-12-01T13:51:00;101848.47;;;6.49;100.00
11114;BME280;5610;52.154;9.198;2022-12-01T13:54:01;101848.50;;;6.48;100.00
11114;BME280;5610;52.154;9.198;2022-12-01T13:56:59;101855.91;;;6.33;100.00
11114;BME280;5610;52.154;9.198;2022-12-01T14:03:37;101855.56;;;6.13;100.00
11114;BME280;5610;52.154;9.198;2022-12-01T14:06:26;101849.50;;;6.08;100.00
11114;BME280;5610;52.154;9.198;2022-12-01T14:09:14;101859.34;;;6.01;100.00
11114;BME280;5610;52.154;9.198;2022-12-01T14:12:05;101866.59;;;5.92;100.00
11114;BME280;5610;52.154;9.198;2022-12-01T14:14:59;101863.03;;;5.94;100.00
11114;BME280;5610;52.154;9.198;2022-12-01T14:17:46;101862.31;;;5.85;100.00
11114;BME280;5610;52.154;9.198;2022-12-01T14:20:42;101867.56;;;5.88;100.00
11114;BME280;5610;52.154;9.198;2022-12-01T14:23:28;101873.69;;;5.90;100.00
11114;BME280;5610;52.154;9.198;2022-12-01T14:26:17;101880.22;;;5.73;100.00
11114;BME280;5610;52.154;9.198;2022-12-01T14:29:09;101879.22;;;5.77;100.00
11114;BME280;5610;52.154;9.198;2022-12-01T14:32:21;101878.22;;;5.83;100.00
11114;BME280;5610;52.154;9.198;2022-12-01T14:35:10;101873.94;;;5.77;100.00
11114;BME280;5610;52.154;9.198;2022-12-01T14:37:59;101879.22;;;5.77;100.00
11114;BME280;5610;52.154;9.198;2022-12-01T14:40:48;101884.50;;;5.79;100.00
11114;BME280;5610;52.154;9.198;2022-12-01T14:43:34;101883.59;;;5.80;100.00
11114;BME280;5610;52.154;9.198;2022-12-01T14:46:41;101882.97;;;5.69;100.00
11114;BME280;5610;52.154;9.198;2022-12-01T14:49:31;101875.84;;;5.72;100.00
11114;BME280;5610;52.154;9.198;2022-12-01T14:52:23;101885.50;;;5.73;100.00
11114;BME280;5610;52.154;9.198;2022-12-01T14:55:16;101889.81;;;5.77;100.00
11114;BME280;5610;52.154;9.198;2022-12-01T14:58:05;101895.06;;;5.81;100.00
11114;BME280;5610;52.154;9.198;2022-12-01T15:00:55;101888.94;;;5.78;100.00
11114;BME280;5610;52.154;9.198;2022-12-01T15:03:45;101892.44;;;5.79;100.00
11114;BME280;5610;52.154;9.198;2022-12-01T15:06:33;101888.03;;;5.79;100.00